Time;durP1;ratioP1;P1;durP2;ratioP2;P2;SDS_P1;SDS_P2;PMS_P1;PMS_P2;Temp;Humidity;BMP_temperature;BMP_pressure;BME280_temperature;BME280_humidity;BME280_pressure;Samples;Min_cycle;Max_cycle;Signal;HPM_P1;HPM_P2
2022/07/06 00:01:58;;;;;;;;;6.00;6.00;;;;;18.72;51.45;101871.16;4910042;29;47370;-86
2022/07/06 00:04:24;;;;;;;;;12.00;9.67;;;;;18.77;51.34;101881.03;4909880;28;45391;-86
2022/07/06 00:06:52;;;;;;;;;6.00;6.00;;;;;18.54;51.89;101845.13;4909980;29;45404;-86
2022/07/06 00:09:18;;;;;;;;;6.00;6.00;;;;;18.74;52.21;101888.22;4895504;28;44801;-86
2022/07/06 00:11:43;;;;;;;;;6.67;6.00;;;;;18.64;52.34;101876.56;4909797;29;46843;-86
2022/07/06 00:14:09;;;;;;;;;7.00;7.00;;;;;18.66;52.26;101879.25;4909371;29;45805;-86
2022/07/06 00:16:35;;;;;;;;;5.33;5.33;;;;;18.63;51.89;101868.50;4895351;28;45298;-87
2022/07/06 00:19:00;;;;;;;;;4.00;4.00;;;;;18.68;53.32;101882.84;4909479;28;45426;-86
2022/07/06 00:21:26;;;;;;;;;5.67;5.00;;;;;18.63;53.47;101884.66;4909764;28;45543;-86
2022/07/06 00:23:51;;;;;;;;;3.33;3.33;;;;;18.46;52.84;101846.94;4910543;28;45079;-86
2022/07/06 00:26:18;;;;;;;;;5.00;5.00;;;;;18.61;52.77;101871.19;4910376;29;45466;-86
2022/07/06 00:28:43;;;;;;;;;3.33;3.33;;;;;18.51;52.39;101851.44;4894163;28;45501;-86
2022/07/06 00:31:09;;;;;;;;;5.67;4.67;;;;;18.61;52.30;101881.06;4894926;28;45098;-85
2022/07/06 00:33:37;;;;;;;;;5.00;5.00;;;;;18.53;52.69;101873.00;4909927;28;45727;-86
2022/07/06 00:36:03;;;;;;;;;6.00;6.00;;;;;18.51;52.92;101875.69;4911100;28;45208;-86
2022/07/06 00:38:28;;;;;;;;;6.00;5.00;;;;;18.38;53.86;101860.44;4896446;28;45364;-86
2022/07/06 00:40:54;;;;;;;;;4.67;4.67;;;;;18.45;53.97;101881.06;4908773;28;45532;-85
2022/07/06 00:43:19;;;;;;;;;4.00;4.00;;;;;18.44;53.61;101883.75;4895328;28;45655;-86
2022/07/06 00:45:45;;;;;;;;;5.67;4.33;;;;;18.35;54.18;101876.59;4925476;28;45457;-86
2022/07/06 00:48:12;;;;;;;;;7.33;4.00;;;;;18.34;53.82;101877.47;4908327;28;45387;-87
2022/07/06 00:50:37;;;;;;;;;4.00;4.00;;;;;18.30;54.05;101875.69;4908945;29;47120;-86
2022/07/06 00:53:05;;;;;;;;;3.00;3.00;;;;;18.27;54.59;101875.69;4908144;28;45502;-87
2022/07/06 00:55:39;;;;;;;;;3.33;3.00;;;;;18.23;54.33;101865.81;4894646;28;44967;-87
2022/07/06 00:58:08;;;;;;;;;3.00;3.00;;;;;18.23;54.55;101879.28;4910338;28;45414;-86
2022/07/06 01:00:35;;;;;;;;;3.00;3.00;;;;;18.18;56.00;101885.56;4910908;28;46979;-86
2022/07/06 01:03:01;;;;;;;;;4.00;4.00;;;;;18.07;54.88;101871.19;4894882;28;45292;-86
2022/07/06 01:05:30;;;;;;;;;4.00;4.00;;;;;18.01;55.55;101867.59;4879880;29;45271;-86
2022/07/06 01:07:56;;;;;;;;;2.67;2.67;;;;;17.97;56.84;101874.75;4911635;28;45597;-85
2022/07/06 01:10:22;;;;;;;;;4.33;4.33;;;;;17.86;58.24;101873.84;4909979;28;47388;-86
2022/07/06 01:12:48;;;;;;;;;4.00;4.00;;;;;17.85;56.38;101889.09;4908935;28;44774;-86
2022/07/06 01:18:43;;;;;;;;;5.67;4.00;;;;;17.68;57.55;101880.94;4893921;29;45403;-87
2022/07/06 01:21:14;;;;;;;;;5.00;5.00;;;;;17.65;57.17;101882.72;4908448;28;46809;-87
2022/07/06 01:23:43;;;;;;;;;4.33;4.33;;;;;17.50;58.56;101867.44;4908840;28;45177;-87
2022/07/06 01:26:14;;;;;;;;;5.33;5.33;;;;;17.62;57.53;101891.69;4909089;28;45396;-87
2022/07/06 01:28:41;;;;;;;;;2.00;2.00;;;;;17.55;58.56;101876.41;4910183;29;45779;-87
2022/07/06 01:31:28;;;;;;;;;3.67;3.67;;;;;17.51;58.39;101877.28;4909351;28;46976;-86
2022/07/06 01:33:56;;;;;;;;;4.00;3.67;;;;;17.57;57.71;101888.06;4894787;28;45411;-87
2022/07/06 01:43:05;;;;;;;;;5.67;5.00;;;;;17.47;60.36;101879.09;4893875;29;45212;-86
2022/07/06 01:45:33;;;;;;;;;4.67;4.67;;;;;17.43;59.89;101870.97;4908613;29;45443;-86
2022/07/06 01:47:58;;;;;;;;;5.00;5.00;;;;;17.37;60.61;101880.84;4908765;28;45443;-86
2022/07/06 01:50:23;;;;;;;;;6.00;4.67;;;;;17.28;59.81;101877.22;4910363;28;45360;-86
2022/07/06 01:52:49;;;;;;;;;8.00;7.00;;;;;17.30;60.53;101894.25;4895848;28;45337;-86
2022/07/06 01:55:15;;;;;;;;;3.00;3.00;;;;;17.25;62.71;101886.16;4910411;28;45450;-86
2022/07/06 01:57:40;;;;;;;;;5.00;5.00;;;;;17.23;60.29;101884.34;4911093;28;44806;-86
2022/07/06 02:00:08;;;;;;;;;3.67;3.67;;;;;17.09;61.07;101863.69;4909893;28;45521;-87
2022/07/06 02:02:34;;;;;;;;;5.33;5.33;;;;;17.20;62.37;101890.59;4892599;28;47364;-86
2022/07/06 02:05:02;;;;;;;;;6.00;6.00;;;;;17.17;62.10;101893.31;4894064;28;45203;-86
2022/07/06 02:07:27;;;;;;;;;6.00;5.00;;;;;17.13;62.12;101889.69;4908658;28;45368;-86
2022/07/06 02:09:53;;;;;;;;;5.00;5.00;;;;;17.10;62.92;101892.34;4908464;28;45489;-86
2022/07/06 02:12:18;;;;;;;;;6.67;6.00;;;;;17.06;62.07;101889.63;4906900;28;46721;-86
2022/07/06 02:14:43;;;;;;;;;5.33;5.33;;;;;16.90;63.06;101856.41;4906454;28;45256;-86
2022/07/06 02:23:53;;;;;;;;;7.00;6.00;;;;;16.94;63.11;101866.28;4892088;28;45413;-86
2022/07/06 02:26:18;;;;;;;;;6.00;6.00;;;;;17.03;64.18;101873.47;4909480;28;45148;-86
2022/07/06 02:28:47;;;;;;;;;6.67;5.33;;;;;16.96;62.70;101862.69;4894199;28;44874;-87
2022/07/06 02:31:13;;;;;;;;;7.33;6.00;;;;;16.98;62.56;101866.28;4908096;28;45629;-87
2022/07/06 02:33:39;;;;;;;;;6.33;6.33;;;;;16.99;62.76;101865.41;4908894;28;47995;-87
2022/07/06 02:36:05;;;;;;;;;5.00;5.00;;;;;16.92;63.83;101850.13;4908578;28;45339;-87
2022/07/06 02:38:30;;;;;;;;;6.00;6.00;;;;;16.93;63.82;101868.06;4909000;28;45684;-87
2022/07/06 02:40:56;;;;;;;;;7.50;6.00;;;;;16.87;63.53;101862.66;4907234;28;45498;-87
2022/07/06 02:43:21;;;;;;;;;7.00;6.00;;;;;16.91;64.29;101867.16;4907289;28;46900;-86
2022/07/06 02:45:53;;;;;;;;;4.00;4.00;;;;;16.84;63.86;101857.25;4891831;28;45666;-87
2022/07/06 02:48:21;;;;;;;;;6.00;6.00;;;;;16.92;64.08;101873.44;4891522;28;44768;-87
2022/07/06 02:50:46;;;;;;;;;5.67;5.67;;;;;16.93;63.86;101873.44;4908010;28;45400;-87
2022/07/06 02:53:12;;;;;;;;;5.00;5.00;;;;;16.77;65.37;101850.03;4907282;28;47168;-87
2022/07/06 02:55:37;;;;;;;;;6.00;6.00;;;;;16.91;65.14;101882.41;4907225;28;45425;-87
2022/07/06 02:58:03;;;;;;;;;7.33;7.33;;;;;16.79;65.78;101864.38;4906506;28;45325;-87
2022/07/06 03:00:28;;;;;;;;;7.67;5.67;;;;;16.78;66.07;101879.59;4892662;29;44790;-87
2022/07/06 03:02:54;;;;;;;;;6.00;6.00;;;;;16.81;64.71;101889.50;4906908;28;46856;-87
2022/07/06 03:05:26;;;;;;;;;5.33;5.33;;;;;16.76;64.86;101883.13;4919216;28;45484;-87
2022/07/06 03:07:51;;;;;;;;;5.33;5.33;;;;;16.81;65.62;101881.44;4912519;28;45401;-87
2022/07/06 03:10:17;;;;;;;;;6.00;5.00;;;;;16.80;65.04;101891.25;4913270;28;45414;-87
2022/07/06 03:12:42;;;;;;;;;5.33;5.33;;;;;16.79;65.99;101891.25;4894886;29;46672;-87
2022/07/06 03:15:12;;;;;;;;;8.00;6.00;;;;;16.75;65.42;101876.00;4910775;28;45483;-87
2022/07/06 03:17:38;;;;;;;;;5.33;5.33;;;;;16.72;65.09;101884.91;4894131;29;45398;-86
2022/07/06 03:20:09;;;;;;;;;4.00;4.00;;;;;16.50;64.61;101853.41;4911021;28;45575;-86
2022/07/06 03:22:35;;;;;;;;;6.67;6.67;;;;;16.58;65.56;101876.78;4895561;29;47646;-86
2022/07/06 03:25:00;;;;;;;;;6.00;6.00;;;;;16.56;66.60;101883.00;4928747;28;45453;-86
2022/07/06 03:27:26;;;;;;;;;6.00;6.00;;;;;16.60;66.60;101883.06;4915025;28;45274;-86
2022/07/06 03:29:51;;;;;;;;;5.33;4.00;;;;;16.50;67.39;101875.81;4914622;28;45236;-86
2022/07/06 03:32:16;;;;;;;;;6.00;6.00;;;;;16.54;66.92;101890.13;4928724;28;47225;-86
2022/07/06 03:34:42;;;;;;;;;5.00;4.00;;;;;16.43;66.11;101881.13;4928731;28;45812;-87
2022/07/06 03:37:08;;;;;;;;;5.33;5.33;;;;;16.53;66.71;101899.09;4896199;28;45394;-86
2022/07/06 03:39:33;;;;;;;;;6.00;6.00;;;;;16.49;68.71;101895.47;4913918;28;45480;-86
2022/07/06 03:41:59;;;;;;;;;5.00;5.00;;;;;16.47;67.13;101899.94;4928679;28;47170;-86
2022/07/06 03:44:24;;;;;;;;;5.67;4.67;;;;;16.48;67.13;101896.38;4927650;28;45408;-86
2022/07/06 03:46:51;;;;;;;;;7.00;7.00;;;;;16.40;67.24;101882.88;4927986;28;45998;-86
2022/07/06 03:49:16;;;;;;;;;4.33;4.33;;;;;16.49;67.82;101897.28;4896915;29;44908;-86
2022/07/06 03:51:41;;;;;;;;;7.00;7.00;;;;;16.46;67.74;101895.47;4929706;28;45815;-86
2022/07/06 03:54:07;;;;;;;;;7.33;5.67;;;;;16.42;71.29;101896.34;4913548;28;46010;-87
2022/07/06 04:00:37;;;;;;;;;5.67;5.67;;;;;16.49;68.33;101914.28;4914311;28;45644;-86
2022/07/06 04:03:06;;;;;;;;;5.33;5.33;;;;;16.49;68.11;101905.34;4929057;28;47510;-86
2022/07/06 04:05:31;;;;;;;;;5.00;4.33;;;;;16.41;68.69;101902.56;4898226;28;45730;-86
2022/07/06 04:07:59;;;;;;;;;6.33;6.00;;;;;16.46;69.77;101911.59;4897483;28;45438;-86
2022/07/06 04:10:24;;;;;;;;;5.33;5.33;;;;;16.40;68.93;101912.44;4929586;28;45472;-86
2022/07/06 04:12:50;;;;;;;;;7.67;6.00;;;;;16.35;69.07;101900.72;4914366;28;47482;-87
2022/07/06 04:15:15;;;;;;;;;6.33;5.33;;;;;16.39;69.15;101907.03;4910091;28;44901;-87
2022/07/06 04:17:52;;;;;;;;;9.00;7.00;;;;;16.37;69.32;101909.69;4896270;28;45734;-87
2022/07/06 04:20:19;;;;;;;;;6.33;6.33;;;;;16.37;70.53;101914.19;4921424;28;44792;-87
2022/07/06 04:23:12;;;;;;;;;7.33;7.33;;;;;16.40;70.13;101914.19;4927545;28;47215;-87
2022/07/06 04:25:38;;;;;;;;;4.67;4.67;;;;;16.43;70.31;101919.59;4928343;28;45406;-87
2022/07/06 04:28:03;;;;;;;;;6.67;5.00;;;;;16.34;72.00;101898.03;4928164;28;44754;-87
2022/07/06 04:30:29;;;;;;;;;8.00;8.00;;;;;16.46;69.58;101914.28;4928265;28;45339;-87
2022/07/06 04:32:55;;;;;;;;;7.67;5.00;;;;;16.50;68.97;101905.34;4885037;29;46887;-87
2022/07/06 04:38:47;;;;;;;;;7.00;7.00;;;;;16.72;69.05;101897.44;4895364;28;45429;-87
2022/07/06 04:41:12;;;;;;;;;7.33;6.33;;;;;16.87;69.15;101908.34;4908608;29;45477;-87
2022/07/06 04:43:39;;;;;;;;;7.33;7.33;;;;;16.97;68.77;101902.13;4908692;29;46716;-87
2022/07/06 04:46:05;;;;;;;;;7.00;7.00;;;;;17.07;68.26;101902.19;4907736;28;45454;-87
2022/07/06 04:48:38;;;;;;;;;9.33;8.67;;;;;17.02;67.66;101893.19;4893727;29;45409;-87
2022/07/06 04:51:04;;;;;;;;;9.00;9.00;;;;;16.98;68.14;101892.28;4877490;29;44813;-87
2022/07/06 04:53:30;;;;;;;;;10.00;9.00;;;;;17.11;67.95;101912.97;4909041;28;47637;-87
2022/07/06 04:55:56;;;;;;;;;8.00;8.00;;;;;17.22;67.59;101913.03;4910348;28;45351;-85
2022/07/06 04:58:21;;;;;;;;;8.00;7.33;;;;;17.33;67.89;101905.91;4895886;28;45418;-86
2022/07/06 05:00:47;;;;;;;;;7.33;7.33;;;;;17.44;67.31;101913.13;4910885;28;45625;-86
2022/07/06 05:03:12;;;;;;;;;8.00;6.67;;;;;17.38;67.58;101898.75;4895506;28;45571;-87
2022/07/06 05:05:38;;;;;;;;;6.00;6.00;;;;;17.36;66.67;101894.28;4879013;29;45765;-87
2022/07/06 05:08:03;;;;;;;;;9.00;7.00;;;;;17.62;67.31;101910.53;4897322;29;45327;-87
2022/07/06 05:10:31;;;;;;;;;6.67;6.67;;;;;17.64;66.45;101889.00;4879550;29;45516;-87
2022/07/06 05:12:56;;;;;;;;;7.00;6.00;;;;;17.82;65.99;101904.31;4878967;29;46748;-87
2022/07/06 05:15:22;;;;;;;;;8.00;8.00;;;;;17.89;65.88;101911.53;4877644;29;44880;-87
2022/07/06 05:17:47;;;;;;;;;6.00;5.00;;;;;17.90;65.48;101903.47;4878171;29;45285;-87
2022/07/06 05:20:17;;;;;;;;;5.67;5.67;;;;;18.03;65.31;101903.50;4893152;28;45624;-86
2022/07/06 05:22:42;;;;;;;;;7.00;7.00;;;;;17.98;65.29;101893.59;4909138;29;45428;-86
2022/07/06 05:25:08;;;;;;;;;7.00;6.67;;;;;18.25;64.96;101904.41;4909595;28;45500;-86
2022/07/06 05:27:33;;;;;;;;;9.00;9.00;;;;;18.31;64.97;101896.34;4893678;28;45406;-87
2022/07/06 05:29:58;;;;;;;;;8.00;8.00;;;;;18.58;63.71;101907.13;4908925;28;44888;-87
2022/07/06 05:32:24;;;;;;;;;8.33;7.67;;;;;18.49;62.92;101890.94;4892657;29;46758;-87
2022/07/06 05:34:51;;;;;;;;;9.00;7.00;;;;;18.66;63.37;101911.59;4895122;29;45427;-87
2022/07/06 05:37:16;;;;;;;;;8.67;7.00;;;;;18.75;62.13;101906.22;4910030;29;45769;-87
2022/07/06 05:39:45;;;;;;;;;7.33;7.00;;;;;18.77;62.82;101913.38;4910922;28;45434;-86
2022/07/06 05:42:10;;;;;;;;;10.33;8.00;;;;;18.63;62.63;101868.50;4918778;28;47773;-87
2022/07/06 05:44:36;;;;;;;;;8.00;7.00;;;;;18.87;61.66;101887.34;4911677;28;45516;-87
2022/07/06 05:52:35;;;;;;;;;10.00;8.00;;;;;18.98;60.60;101866.66;4895891;29;45369;-91
2022/07/06 06:01:49;;;;;;;;;11.00;10.67;;;;;19.59;59.42;101929.38;4905238;28;45514;-90
2022/07/06 06:04:21;;;;;;;;;12.67;11.33;;;;;19.61;59.51;101908.66;4897979;29;45558;-90
2022/07/06 06:06:49;;;;;;;;;8.00;8.00;;;;;19.84;58.99;101915.81;4929403;28;45415;-91
2022/07/06 06:09:17;;;;;;;;;10.00;10.00;;;;;19.94;58.62;101904.06;4898198;29;45258;-91
2022/07/06 06:12:03;;;;;;;;;12.67;9.33;;;;;20.15;58.06;101917.38;4880044;28;44912;-91
2022/07/06 06:17:54;;;;;;;;;10.00;10.00;;;;;20.08;56.58;101926.47;4895528;28;44704;-92
2022/07/06 06:20:23;;;;;;;;;13.00;11.00;;;;;20.08;56.60;101921.06;4909135;28;45433;-92
2022/07/06 06:23:04;;;;;;;;;12.00;10.00;;;;;19.88;56.76;101894.19;4910731;28;45601;-91
2022/07/06 06:25:39;;;;;;;;;10.33;10.33;;;;;19.99;56.91;101896.78;4910110;28;45546;-91
2022/07/06 06:28:13;;;;;;;;;12.00;11.00;;;;;20.14;56.33;101894.00;4877566;29;45464;-91
2022/07/06 06:30:46;;;;;;;;;11.67;11.67;;;;;20.44;55.87;101931.59;4894745;28;45328;-91
2022/07/06 06:33:36;;;;;;;;;12.67;11.33;;;;;20.45;55.45;101909.97;4878179;29;45359;-91
2022/07/06 06:36:08;;;;;;;;;12.00;10.00;;;;;20.43;55.04;101910.91;4877509;29;46185;-92
2022/07/06 06:38:34;;;;;;;;;8.00;8.00;;;;;20.39;55.06;101902.81;4906939;28;45528;-91
2022/07/06 06:41:07;;;;;;;;;12.00;10.33;;;;;20.70;54.91;101931.41;4907672;28;45327;-91
2022/07/06 06:43:45;;;;;;;;;13.67;13.67;;;;;20.62;54.12;101893.63;4896519;28;44896;-91
2022/07/06 06:51:31;;;;;;;;;7.67;7.67;;;;;21.01;53.07;101917.63;5195203;23;45247;-91
2022/07/06 06:54:09;;;;;;;;;11.33;11.33;;;;;21.19;52.32;101920.13;4957483;28;45251;-91
2022/07/06 06:56:36;;;;;;;;;7.67;7.67;;;;;21.10;52.20;101882.34;4958404;28;46335;-92
2022/07/06 06:59:12;;;;;;;;;10.33;9.00;;;;;21.57;51.40;101945.84;4954818;28;45553;-92
2022/07/06 11:02:02;;;;;;;;;7.33;7.00;;;;;25.89;37.46;101886.72;4818716;29;45779;-88
2022/07/06 11:36:16;;;;;;;;;7.67;6.33;;;;;25.80;37.53;101808.00;5019144;23;46007;-84
2022/07/06 11:38:54;;;;;;;;;8.67;8.67;;;;;26.04;37.24;101834.50;4933320;28;44883;-84
2022/07/06 11:41:26;;;;;;;;;11.00;10.00;;;;;25.94;36.64;101809.38;4916734;28;45412;-86
2022/07/06 11:44:11;;;;;;;;;7.00;7.00;;;;;25.90;35.29;101828.59;4918942;28;45346;-87
2022/07/06 11:50:28;;;;;;;;;8.00;6.00;;;;;25.86;36.59;101841.41;4937781;28;45418;-86
2022/07/06 11:53:13;;;;;;;;;7.67;7.67;;;;;25.93;36.83;101821.22;4938574;28;45422;-85
2022/07/06 11:56:15;;;;;;;;;6.33;6.33;;;;;25.96;35.98;101803.88;4921308;28;46482;-87
2022/07/06 12:02:27;;;;;;;;;;;;;;;;;;;;;
2022/07/06 12:05:50;;;;;;;;;8.33;6.67;;;;;26.39;35.82;101824.19;4937494;28;65112;-86
2022/07/06 12:08:19;;;;;;;;;8.33;5.67;;;;;26.21;35.15;101795.72;4921428;28;45204;-85
2022/07/06 12:35:44;;;;;;;;;5.00;5.00;;;;;25.85;35.90;101820.53;5196766;23;47076;-85
2022/07/06 12:44:15;;;;;;;;;;;;;;;;;;;;;
2022/07/06 12:47:23;;;;;;;;;;;;;;;;;;;;;
2022/07/06 12:50:38;;;;;;;;;5.00;4.33;;;;;26.33;34.50;101789.84;4924880;28;65052;-85
2022/07/06 12:56:59;;;;;;;;;5.67;5.67;;;;;26.46;34.12;101797.59;4936840;28;45390;-85
2022/07/06 13:08:49;;;;;;;;;5.67;4.33;;;;;26.68;33.92;101786.81;5078437;23;45821;-86
2022/07/06 13:11:30;;;;;;;;;5.33;5.33;;;;;26.67;33.32;101777.75;4947049;28;44943;-85
2022/07/06 13:14:11;;;;;;;;;6.00;6.00;;;;;26.46;33.37;101749.41;4944874;28;44938;-86
2022/07/06 13:19:55;;;;;;;;;2.33;2.33;;;;;26.51;32.88;101751.97;4932086;28;45905;-85
2022/07/06 13:23:03;;;;;;;;;;;;;;;;;;;;;
2022/07/06 13:26:17;;;;;;;;;4.33;4.00;;;;;26.62;33.19;101762.50;4945983;28;65821;-86
2022/07/06 15:28:37;;;;;;;;;1.00;1.00;;;;;44.70;12.61;101619.69;4931103;28;45396;-86
2022/07/06 15:42:22;;;;;;;;;;;;;;;;;;;;;
2022/07/06 15:44:55;;;;;;;;;0.00;0.00;;;;;47.73;11.84;101611.94;4931643;28;65120;-88
2022/07/06 15:47:23;;;;;;;;;0.00;0.00;;;;;48.01;11.24;101616.78;4914785;28;46974;-88
2022/07/06 15:49:52;;;;;;;;;0.00;0.00;;;;;48.24;12.11;101620.19;4912361;28;45324;-88
2022/07/06 15:52:26;;;;;;;;;0.00;0.00;;;;;48.15;9.90;101592.34;4911921;28;45463;-88
2022/07/06 15:54:56;;;;;;;;;0.67;0.00;;;;;47.74;11.51;101590.28;4896315;29;45432;-88
2022/07/06 15:57:33;;;;;;;;;0.67;0.67;;;;;48.42;12.05;101615.97;4901384;29;46800;-88
2022/07/06 15:59:59;;;;;;;;;0.00;0.00;;;;;48.84;10.84;101603.59;4911037;28;45191;-88
2022/07/06 16:02:24;;;;;;;;;1.00;0.00;;;;;47.71;9.77;101604.78;4909922;28;45327;-87
2022/07/06 16:04:53;;;;;;;;;0.00;0.00;;;;;46.69;11.09;101598.19;4895864;28;45845;-87
2022/07/06 16:07:20;;;;;;;;;0.00;0.00;;;;;46.84;11.18;101595.38;4929143;28;46744;-87
2022/07/06 16:09:48;;;;;;;;;1.00;1.00;;;;;47.13;12.01;101587.91;4913993;28;45297;-88
2022/07/06 16:12:17;;;;;;;;;0.00;0.00;;;;;47.03;11.12;101589.09;4913586;28;45197;-88
2022/07/06 16:14:45;;;;;;;;;1.33;0.33;;;;;47.05;11.27;101581.34;4912305;28;45335;-88
2022/07/06 16:17:21;;;;;;;;;0.00;0.00;;;;;46.74;11.81;101580.69;4910665;28;45789;-88
2022/07/06 16:19:48;;;;;;;;;1.00;1.00;;;;;47.13;11.60;101571.00;4920788;28;44800;-87
2022/07/06 16:22:14;;;;;;;;;0.00;0.00;;;;;47.89;11.28;101569.34;4911618;29;45444;-87
2022/07/06 16:24:42;;;;;;;;;0.00;0.00;;;;;48.15;10.83;101581.06;4924420;28;45295;-88
2022/07/06 16:27:20;;;;;;;;;0.00;0.00;;;;;48.07;10.87;101557.56;4930232;28;45438;-86
2022/07/06 16:30:04;;;;;;;;;0.00;0.00;;;;;48.30;11.56;101586.59;4916712;28;45300;-87
2022/07/06 16:38:13;;;;;;;;;0.00;0.00;;;;;46.75;12.11;101563.63;5319207;23;45516;-86
2022/07/06 16:40:56;;;;;;;;;3.00;1.00;;;;;45.52;11.67;101550.91;4954564;28;45455;-87
2022/07/06 16:43:22;;;;;;;;;0.00;0.00;;;;;44.50;13.08;101554.72;4953572;28;45449;-86
2022/07/06 16:45:54;;;;;;;;;0.67;0.00;;;;;44.16;12.81;101565.31;4922228;28;45343;-86
2022/07/06 16:53:37;;;;;;;;;0.00;0.00;;;;;42.07;13.92;101536.38;4949793;28;45307;-87
2022/07/06 16:56:06;;;;;;;;;0.00;0.00;;;;;43.02;13.18;101555.84;4936762;28;45664;-87
2022/07/06 16:58:35;;;;;;;;;0.00;0.00;;;;;43.81;13.45;101562.72;4935961;28;47126;-86
2022/07/06 17:01:07;;;;;;;;;0.00;0.00;;;;;44.21;13.32;101562.84;4936810;28;45373;-86
2022/07/06 17:03:34;;;;;;;;;0.00;0.00;;;;;43.19;12.86;101534.34;4953631;28;45301;-86
2022/07/06 17:06:01;;;;;;;;;0.33;0.00;;;;;41.85;14.21;101576.91;4940505;28;45535;-86
2022/07/06 17:08:26;;;;;;;;;0.00;0.00;;;;;41.63;14.59;101568.00;4933658;28;46184;-86
2022/07/06 17:10:52;;;;;;;;;0.67;0.67;;;;;42.58;14.40;101561.63;4916210;28;45513;-86
2022/07/06 17:13:18;;;;;;;;;0.00;0.00;;;;;43.62;14.23;101571.50;4917099;28;44841;-87
2022/07/06 17:22:29;;;;;;;;;0.00;0.00;;;;;40.70;14.54;101568.22;4931148;28;45346;-85
2022/07/06 17:24:54;;;;;;;;;0.00;0.00;;;;;38.41;16.18;101582.59;4914570;28;44897;-87
2022/07/06 17:27:40;;;;;;;;;0.00;0.00;;;;;36.12;17.78;101584.63;4915714;28;45403;-87
2022/07/06 17:30:09;;;;;;;;;0.00;0.00;;;;;34.47;18.92;101589.78;4914264;28;46919;-87
2022/07/06 17:32:39;;;;;;;;;0.00;0.00;;;;;33.30;20.26;101577.81;4915654;28;45417;-86
2022/07/06 17:35:15;;;;;;;;;0.00;0.00;;;;;32.43;21.30;101577.09;4917414;28;45400;-87
2022/07/06 17:45:22;;;;;;;;;0.00;0.00;;;;;30.43;23.95;101583.56;4949985;28;45404;-87
2022/07/06 17:47:51;;;;;;;;;0.00;0.00;;;;;29.87;24.74;101557.38;4933895;28;45489;-87
2022/07/06 17:50:19;;;;;;;;;1.67;0.00;;;;;29.74;24.96;101589.19;4933186;28;47981;-87
2022/07/06 17:52:46;;;;;;;;;0.00;0.00;;;;;29.38;25.89;101587.34;4948978;28;45515;-87
2022/07/06 17:55:12;;;;;;;;;0.00;0.00;;;;;28.92;27.76;101564.03;4934100;28;45341;-88
2022/07/06 17:57:38;;;;;;;;;0.00;0.00;;;;;28.73;27.10;101579.59;4930316;28;45552;-87
2022/07/06 18:00:05;;;;;;;;;0.00;0.00;;;;;28.56;27.34;101601.41;4913147;28;46927;-87
2022/07/06 18:02:31;;;;;;;;;0.00;0.00;;;;;28.38;28.92;101594.91;4932494;28;45373;-87
2022/07/06 18:04:56;;;;;;;;;0.00;0.00;;;;;28.17;29.52;101599.56;4944052;28;44931;-87
2022/07/06 18:07:22;;;;;;;;;0.00;0.00;;;;;27.93;28.60;101597.88;4915448;28;45340;-87
2022/07/06 18:10:37;;;;;;;;;1.33;0.00;;;;;27.72;30.61;101613.34;4915670;28;47473;-87
2022/07/06 18:13:03;;;;;;;;;0.00;0.00;;;;;27.49;30.86;101602.50;4932583;28;45608;-87
2022/07/06 18:15:30;;;;;;;;;0.00;0.00;;;;;27.56;30.91;101620.44;4932082;28;45547;-87
2022/07/06 18:17:56;;;;;;;;;0.00;0.00;;;;;27.43;31.93;101600.03;4915984;28;45731;-87
2022/07/06 18:20:24;;;;;;;;;0.00;0.00;;;;;27.51;33.59;101617.91;4918546;28;46608;-87
2022/07/06 18:22:52;;;;;;;;;0.00;0.00;;;;;27.43;33.43;101616.44;4931992;28;45314;-87
2022/07/06 18:25:18;;;;;;;;;0.00;0.00;;;;;27.38;32.00;101613.03;4915597;28;45380;-87
2022/07/06 18:27:43;;;;;;;;;0.00;0.00;;;;;27.44;33.15;101615.50;4931943;28;45273;-87
2022/07/06 18:30:09;;;;;;;;;0.00;0.00;;;;;27.24;33.29;101594.50;4930182;28;46734;-87
2022/07/06 18:32:34;;;;;;;;;0.00;0.00;;;;;27.12;33.04;101601.31;4912462;28;45282;-87
2022/07/06 18:35:03;;;;;;;;;0.00;0.00;;;;;27.14;32.57;101615.78;4914436;28;45874;-87
2022/07/06 18:37:29;;;;;;;;;0.00;0.00;;;;;26.91;34.33;101614.91;4929839;28;45484;-87
2022/07/06 18:39:55;;;;;;;;;0.00;0.00;;;;;26.91;33.71;101620.34;4913775;28;46766;-87
2022/07/06 18:42:27;;;;;;;;;0.00;0.00;;;;;26.66;34.15;101593.19;4914659;28;45392;-87
2022/07/06 18:44:52;;;;;;;;;0.00;0.00;;;;;26.77;34.54;101628.22;4909479;28;45514;-87
2022/07/06 18:47:21;;;;;;;;;0.33;0.33;;;;;26.41;35.31;101576.81;4912097;28;45458;-87
2022/07/06 18:49:48;;;;;;;;;0.00;0.00;;;;;26.52;36.55;101614.59;4927019;28;45524;-87
2022/07/06 18:52:13;;;;;;;;;0.25;0.25;;;;;26.46;36.58;101629.38;4911594;28;45921;-87
2022/07/06 18:54:39;;;;;;;;;0.00;0.00;;;;;26.26;37.05;101610.16;4913201;28;45602;-87
2022/07/06 18:57:05;;;;;;;;;0.00;0.00;;;;;26.30;35.67;101625.47;4912655;28;44780;-87
2022/07/06 18:59:31;;;;;;;;;0.00;0.00;;;;;26.08;36.11;101607.16;4913552;28;46763;-87
2022/07/06 19:01:56;;;;;;;;;0.00;0.00;;;;;26.11;37.14;101619.78;4912449;28;45404;-87
2022/07/06 19:04:21;;;;;;;;;0.00;0.00;;;;;26.07;37.25;101635.34;4894937;29;45419;-87
2022/07/06 19:06:47;;;;;;;;;0.33;0.33;;;;;25.96;36.93;101613.06;4911930;28;45513;-87
2022/07/06 19:09:12;;;;;;;;;0.00;0.00;;;;;25.92;38.07;101627.75;4911021;28;47591;-87
2022/07/06 19:11:41;;;;;;;;;0.00;0.00;;;;;25.80;37.41;101618.13;4911514;28;45391;-87
2022/07/06 19:14:37;;;;;;;;;0.33;0.33;;;;;25.75;38.07;101639.19;4912746;28;44745;-87
2022/07/06 19:17:03;;;;;;;;;1.00;0.00;;;;;25.61;38.55;101623.38;4912438;28;45592;-87
2022/07/06 19:19:29;;;;;;;;;0.33;0.33;;;;;25.57;38.81;101637.13;4911080;28;48292;-88
2022/07/06 19:21:54;;;;;;;;;0.33;0.33;;;;;25.47;40.17;101640.16;4910924;28;45546;-87
2022/07/06 19:24:20;;;;;;;;;0.33;0.33;;;;;25.37;38.86;101633.25;4910732;28;45295;-87
2022/07/06 19:26:51;;;;;;;;;0.33;0.33;;;;;25.37;39.75;101637.78;4911023;28;45841;-87
2022/07/06 19:29:17;;;;;;;;;0.00;0.00;;;;;25.22;42.37;101625.59;4925578;28;46974;-87
2022/07/06 19:31:43;;;;;;;;;0.00;0.00;;;;;25.23;40.01;101638.25;4910680;28;45308;-87
2022/07/06 19:34:08;;;;;;;;;1.50;0.25;;;;;25.06;40.45;101623.31;4912013;28;45420;-87
2022/07/06 19:36:34;;;;;;;;;1.00;0.25;;;;;25.04;41.05;101638.81;4927407;28;45404;-87
2022/07/06 19:38:59;;;;;;;;;3.00;0.00;;;;;24.91;41.69;101632.88;4927191;28;46649;-87
2022/07/06 19:41:25;;;;;;;;;0.00;0.00;;;;;24.87;42.00;101647.53;4927754;28;45334;-87
2022/07/06 19:43:51;;;;;;;;;0.33;0.33;;;;;24.78;42.22;101645.06;4927478;28;45801;-87
2022/07/06 19:46:17;;;;;;;;;0.25;0.25;;;;;24.73;41.70;101650.66;4911320;28;45533;-87
2022/07/06 19:48:42;;;;;;;;;0.33;0.33;;;;;24.68;41.93;101663.53;4926305;28;48216;-87
2022/07/06 19:51:10;;;;;;;;;0.67;0.67;;;;;24.61;44.42;101661.03;4924979;28;45336;-87
2022/07/06 19:53:36;;;;;;;;;1.00;1.00;;;;;24.49;43.29;101646.81;4909016;29;44858;-87
2022/07/06 19:56:02;;;;;;;;;1.33;1.33;;;;;24.43;42.60;101657.88;4925321;28;45641;-87
2022/07/06 19:58:27;;;;;;;;;2.00;2.00;;;;;24.32;44.53;101660.91;4909245;28;48347;-87
2022/07/06 20:00:53;;;;;;;;;1.00;1.00;;;;;24.28;43.67;101658.31;4908812;28;45263;-87
2022/07/06 20:03:22;;;;;;;;;2.67;2.67;;;;;24.22;44.24;101653.97;4928435;28;45965;-87
2022/07/06 20:05:49;;;;;;;;;1.33;1.33;;;;;24.10;43.95;101657.03;4933953;28;45660;-87
2022/07/06 20:08:15;;;;;;;;;3.00;3.00;;;;;24.09;45.17;101680.56;4933504;28;48167;-87
2022/07/06 20:10:41;;;;;;;;;2.00;2.00;;;;;24.02;46.17;101673.53;4948196;28;44810;-87
2022/07/06 20:13:06;;;;;;;;;3.00;3.00;;;;;23.90;44.28;101663.88;4934219;28;45290;-87
2022/07/06 20:15:35;;;;;;;;;1.67;1.67;;;;;23.92;44.79;101678.31;4933516;28;44819;-87
2022/07/06 20:18:01;;;;;;;;;2.00;2.00;;;;;23.90;44.68;101673.88;4931170;28;46960;-87
2022/07/06 20:20:27;;;;;;;;;4.00;4.00;;;;;23.87;44.98;101676.66;4931612;28;44829;-87
2022/07/06 20:22:56;;;;;;;;;3.33;3.33;;;;;23.81;44.69;101676.81;4932959;28;45431;-87
2022/07/06 20:25:22;;;;;;;;;1.67;1.67;;;;;23.67;47.80;101661.75;4931555;28;45315;-87
2022/07/06 20:27:50;;;;;;;;;1.00;1.00;;;;;23.62;46.80;101669.09;4933783;28;45420;-87
2022/07/06 20:30:18;;;;;;;;;2.00;2.00;;;;;23.63;45.93;101689.00;4932395;28;45412;-87